Time;durP1;ratioP1;P1;durP2;ratioP2;P2;SDS_P1;SDS_P2;PMS_P1;PMS_P2;Temp;Humidity;BMP_temperature;BMP_pressure;BME280_temperature;BME280_humidity;BME280_pressure;Samples;Min_cycle;Max_cycle;Signal;HPM_P1;HPM_P2
2022/07/30 00:02:13;;;;;;;;;;;;;;;;;;5020014;28;20000;-85
2022/07/30 00:04:38;;;;;;;;;;;;;;;;;;5015803;23;19936;-86
2022/07/30 00:07:03;;;;;;;;;;;;;;;;;;5019016;28;19953;-87
2022/07/30 00:09:28;;;;;;;;;;;;;;;;;;5018933;28;20025;-87
2022/07/30 00:11:54;;;;;;;;;;;;;;;;;;5002474;28;20267;-86
2022/07/30 00:14:19;;;;;;;;;;;;;;;;;;5020185;28;19960;-87
2022/07/30 00:16:44;;;;;;;;;;;;;;;;;;5023239;28;19924;-87
2022/07/30 00:19:10;;;;;;;;;;;;;;;;;;5026060;28;19923;-87
2022/07/30 00:21:35;;;;;;;;;;;;;;;;;;5025957;28;19971;-87
2022/07/30 00:24:00;;;;;;;;;;;;;;;;;;5022567;28;19917;-87
2022/07/30 00:26:25;;;;;;;;;;;;;;;;;;5026361;28;19917;-87
2022/07/30 00:28:50;;;;;;;;;;;;;;;;;;5028089;28;20398;-84
2022/07/30 00:31:15;;;;;;;;;;;;;;;;;;5025502;28;19909;-84
2022/07/30 00:33:41;;;;;;;;;;;;;;;;;;5024211;28;19960;-84
2022/07/30 00:36:06;;;;;;;;;;;;;;;;;;5023069;28;20207;-84
2022/07/30 00:38:31;;;;;;;;;;;;;;;;;;5024198;28;19928;-84
2022/07/30 00:40:57;;;;;;;;;;;;;;;;;;5029122;28;20180;-84
2022/07/30 00:43:22;;;;;;;;;;;;;;;;;;5022794;28;19909;-84
2022/07/30 00:45:47;;;;;;;;;;;;;;;;;;5031166;28;19913;-84
2022/07/30 00:48:12;;;;;;;;;;;;;;;;;;5028009;28;20286;-84
2022/07/30 00:50:37;;;;;;;;;;;;;;;;;;5027101;28;20008;-84
2022/07/30 00:53:03;;;;;;;;;;;;;;;;;;5023308;28;20070;-84
2022/07/30 00:55:28;;;;;;;;;;;;;;;;;;5026153;28;19960;-84
2022/07/30 00:57:53;;;;;;;;;;;;;;;;;;4997346;28;19971;-84
2022/07/30 01:00:18;;;;;;;;;;;;;;;;;;5026019;28;20266;-84
2022/07/30 01:02:43;;;;;;;;;;;;;;;;;;5023949;28;19964;-84
2022/07/30 01:05:08;;;;;;;;;;;;;;;;;;5024478;28;19917;-84
2022/07/30 01:07:34;;;;;;;;;;;;;;;;;;5025329;28;19966;-84
2022/07/30 01:09:59;;;;;;;;;;;;;;;;;;5020216;28;19952;-84
2022/07/30 01:12:24;;;;;;;;;;;;;;;;;;5030304;28;19916;-84
2022/07/30 01:14:49;;;;;;;;;;;;;;;;;;5026313;28;20004;-84
2022/07/30 01:17:14;;;;;;;;;;;;;;;;;;5025282;28;20395;-84
2022/07/30 01:19:51;;;;;;;;;;;;;;;;;;5026137;28;19924;-84
2022/07/30 01:22:16;;;;;;;;;;;;;;;;;;5020674;28;19940;-84
2022/07/30 01:24:41;;;;;;;;;;;;;;;;;;5020721;28;20302;-83
2022/07/30 01:27:06;;;;;;;;;;;;;;;;;;5027675;28;20007;-83
2022/07/30 01:29:31;;;;;;;;;;;;;;;;;;5028818;28;19921;-83
2022/07/30 01:31:58;;;;;;;;;;;;;;;;;;5021103;28;20398;-84
2022/07/30 01:34:24;;;;;;;;;;;;;;;;;;5020260;28;19916;-83
2022/07/30 01:36:49;;;;;;;;;;;;;;;;;;5023620;28;19921;-84
2022/07/30 01:39:14;;;;;;;;;;;;;;;;;;5005334;28;20357;-84
2022/07/30 01:41:39;;;;;;;;;;;;;;;;;;5020845;28;20071;-84
2022/07/30 01:44:04;;;;;;;;;;;;;;;;;;5023406;28;19913;-84
2022/07/30 01:46:30;;;;;;;;;;;;;;;;;;5017590;28;20390;-84
2022/07/30 01:48:55;;;;;;;;;;;;;;;;;;5021720;28;20409;-84
2022/07/30 01:51:20;;;;;;;;;;;;;;;;;;5021789;28;19967;-84
2022/07/30 01:53:45;;;;;;;;;;;;;;;;;;5019668;28;19952;-84
2022/07/30 01:56:10;;;;;;;;;;;;;;;;;;5015706;28;20004;-84
2022/07/30 01:58:35;;;;;;;;;;;;;;;;;;5022149;28;20387;-84
2022/07/30 02:01:01;;;;;;;;;;;;;;;;;;5025889;28;19966;-84
2022/07/30 02:03:26;;;;;;;;;;;;;;;;;;5022856;28;19975;-84
2022/07/30 02:05:51;;;;;;;;;;;;;;;;;;5007544;28;20302;-84
2022/07/30 02:08:16;;;;;;;;;;;;;;;;;;5024876;28;19913;-84
2022/07/30 02:10:41;;;;;;;;;;;;;;;;;;5003113;28;19921;-84
2022/07/30 02:13:06;;;;;;;;;;;;;;;;;;5020639;28;19913;-84
2022/07/30 02:15:33;;;;;;;;;;;;;;;;;;5025465;28;20012;-84
2022/07/30 02:17:58;;;;;;;;;;;;;;;;;;5018936;28;20063;-84
2022/07/30 02:20:24;;;;;;;;;;;;;;;;;;5024944;28;20388;-84
2022/07/30 02:22:49;;;;;;;;;;;;;;;;;;5023545;28;20382;-84
2022/07/30 02:25:14;;;;;;;;;;;;;;;;;;5020905;28;19917;-84
2022/07/30 02:27:39;;;;;;;;;;;;;;;;;;5022708;28;19921;-84
2022/07/30 02:30:04;;;;;;;;;;;;;;;;;;5022638;28;20016;-84
2022/07/30 02:32:30;;;;;;;;;;;;;;;;;;5023027;28;19943;-84
2022/07/30 02:34:55;;;;;;;;;;;;;;;;;;5023730;28;20392;-83
2022/07/30 02:37:22;;;;;;;;;;;;;;;;;;5004319;28;19919;-83
2022/07/30 02:39:47;;;;;;;;;;;;;;;;;;5021177;28;19917;-84
2022/07/30 02:42:12;;;;;;;;;;;;;;;;;;5027459;28;20359;-83
2022/07/30 02:44:37;;;;;;;;;;;;;;;;;;5026022;28;19917;-84
2022/07/30 02:47:02;;;;;;;;;;;;;;;;;;5022941;28;19921;-83
2022/07/30 02:49:28;;;;;;;;;;;;;;;;;;5025345;28;19913;-83
2022/07/30 02:51:53;;;;;;;;;;;;;;;;;;5019604;28;20081;-83
2022/07/30 02:54:18;;;;;;;;;;;;;;;;;;5020219;28;19920;-83
2022/07/30 02:56:43;;;;;;;;;;;;;;;;;;5024144;28;20008;-83
2022/07/30 02:59:08;;;;;;;;;;;;;;;;;;5025904;28;19920;-83
2022/07/30 03:01:33;;;;;;;;;;;;;;;;;;5007506;28;20293;-84
2022/07/30 03:03:59;;;;;;;;;;;;;;;;;;5018456;28;19972;-84
2022/07/30 03:06:24;;;;;;;;;;;;;;;;;;5024060;28;19917;-83
2022/07/30 03:08:49;;;;;;;;;;;;;;;;;;5016875;28;19938;-83
2022/07/30 03:11:16;;;;;;;;;;;;;;;;;;5020817;28;20340;-84
2022/07/30 03:13:41;;;;;;;;;;;;;;;;;;5023109;28;19936;-84
2022/07/30 03:16:06;;;;;;;;;;;;;;;;;;5024251;28;20343;-83
2022/07/30 03:18:31;;;;;;;;;;;;;;;;;;5021619;28;19964;-83
2022/07/30 03:20:56;;;;;;;;;;;;;;;;;;5020801;28;19929;-84
2022/07/30 03:23:22;;;;;;;;;;;;;;;;;;5019971;28;19916;-83
2022/07/30 03:25:47;;;;;;;;;;;;;;;;;;5020507;28;20004;-83
2022/07/30 03:28:12;;;;;;;;;;;;;;;;;;5015108;28;19996;-84
2022/07/30 03:30:37;;;;;;;;;;;;;;;;;;5019147;28;20347;-84
2022/07/30 03:33:03;;;;;;;;;;;;;;;;;;5019952;28;19964;-84
2022/07/30 03:35:28;;;;;;;;;;;;;;;;;;5021892;28;19917;-84
2022/07/30 03:37:54;;;;;;;;;;;;;;;;;;5015242;28;19921;-84
2022/07/30 03:40:19;;;;;;;;;;;;;;;;;;5022018;28;19917;-84
2022/07/30 03:42:44;;;;;;;;;;;;;;;;;;5024216;28;19920;-83
2022/07/30 03:45:09;;;;;;;;;;;;;;;;;;5023752;28;19913;-84
2022/07/30 03:47:34;;;;;;;;;;;;;;;;;;5017043;28;20410;-84
2022/07/30 03:50:00;;;;;;;;;;;;;;;;;;5019325;28;20370;-84
2022/07/30 03:52:25;;;;;;;;;;;;;;;;;;5020269;28;19921;-84
2022/07/30 03:54:50;;;;;;;;;;;;;;;;;;5026320;28;20269;-84
2022/07/30 03:57:15;;;;;;;;;;;;;;;;;;5022558;28;20020;-84
2022/07/30 03:59:40;;;;;;;;;;;;;;;;;;5025049;28;19939;-83
2022/07/30 04:02:05;;;;;;;;;;;;;;;;;;5023624;28;20290;-84
2022/07/30 04:04:31;;;;;;;;;;;;;;;;;;5011104;28;21670;-83
2022/07/30 04:06:56;;;;;;;;;;;;;;;;;;5022048;28;20393;-84
2022/07/30 04:09:22;;;;;;;;;;;;;;;;;;5022985;28;19922;-84
2022/07/30 04:11:47;;;;;;;;;;;;;;;;;;5027898;28;20012;-84
2022/07/30 04:14:12;;;;;;;;;;;;;;;;;;5026495;28;20140;-84
2022/07/30 04:16:37;;;;;;;;;;;;;;;;;;5020782;28;19921;-83
2022/07/30 04:19:02;;;;;;;;;;;;;;;;;;5021236;28;19920;-84
2022/07/30 04:21:27;;;;;;;;;;;;;;;;;;5021426;28;20013;-84
2022/07/30 04:23:53;;;;;;;;;;;;;;;;;;5024684;28;19917;-83
2022/07/30 04:26:18;;;;;;;;;;;;;;;;;;5007364;28;19968;-84
2022/07/30 04:28:43;;;;;;;;;;;;;;;;;;5023645;28;19917;-84
2022/07/30 04:31:08;;;;;;;;;;;;;;;;;;5021787;28;19917;-84
2022/07/30 04:33:33;;;;;;;;;;;;;;;;;;5022533;28;20406;-84
2022/07/30 04:35:58;;;;;;;;;;;;;;;;;;5022638;28;19924;-84
2022/07/30 04:38:24;;;;;;;;;;;;;;;;;;5017206;28;19921;-83
2022/07/30 04:40:49;;;;;;;;;;;;;;;;;;5025133;28;20100;-84
2022/07/30 04:43:14;;;;;;;;;;;;;;;;;;5021811;28;19913;-84
2022/07/30 04:45:39;;;;;;;;;;;;;;;;;;5021755;28;19920;-84
2022/07/30 04:48:05;;;;;;;;;;;;;;;;;;5027022;28;19917;-84
2022/07/30 04:50:30;;;;;;;;;;;;;;;;;;5021094;28;20702;-84
2022/07/30 04:52:55;;;;;;;;;;;;;;;;;;5025953;28;20386;-84
2022/07/30 04:55:21;;;;;;;;;;;;;;;;;;5020090;28;19917;-84
2022/07/30 04:57:46;;;;;;;;;;;;;;;;;;5025188;28;19913;-84
2022/07/30 05:00:11;;;;;;;;;;;;;;;;;;5021265;28;19917;-84
2022/07/30 05:02:37;;;;;;;;;;;;;;;;;;5022016;28;19949;-84
2022/07/30 05:05:02;;;;;;;;;;;;;;;;;;5018427;28;20424;-84
2022/07/30 05:07:27;;;;;;;;;;;;;;;;;;5022875;28;20064;-84
2022/07/30 05:09:52;;;;;;;;;;;;;;;;;;5023963;28;20332;-84
2022/07/30 05:12:17;;;;;;;;;;;;;;;;;;5024236;28;19915;-84
2022/07/30 05:14:43;;;;;;;;;;;;;;;;;;5028499;28;19913;-84
2022/07/30 05:17:08;;;;;;;;;;;;;;;;;;5019753;28;19925;-84
2022/07/30 05:19:33;;;;;;;;;;;;;;;;;;5022182;28;20457;-84
2022/07/30 05:21:58;;;;;;;;;;;;;;;;;;5018915;28;19917;-83
2022/07/30 05:24:23;;;;;;;;;;;;;;;;;;5017848;28;19963;-84
2022/07/30 05:26:48;;;;;;;;;;;;;;;;;;5017620;28;19913;-84
2022/07/30 05:29:14;;;;;;;;;;;;;;;;;;5022263;28;20402;-84
2022/07/30 05:31:39;;;;;;;;;;;;;;;;;;5017412;28;20354;-84
2022/07/30 05:34:04;;;;;;;;;;;;;;;;;;4997790;28;19959;-84
2022/07/30 05:36:29;;;;;;;;;;;;;;;;;;5016680;28;19921;-84
2022/07/30 05:38:54;;;;;;;;;;;;;;;;;;5018159;28;19917;-84
2022/07/30 05:41:20;;;;;;;;;;;;;;;;;;5023361;28;20409;-84
2022/07/30 05:43:45;;;;;;;;;;;;;;;;;;5007478;28;19924;-84
2022/07/30 05:46:10;;;;;;;;;;;;;;;;;;5023721;28;20437;-84
2022/07/30 05:48:35;;;;;;;;;;;;;;;;;;5024517;28;19923;-84
2022/07/30 05:51:00;;;;;;;;;;;;;;;;;;5030820;28;20076;-84
2022/07/30 05:53:26;;;;;;;;;;;;;;;;;;5019562;28;19928;-84
2022/07/30 05:55:51;;;;;;;;;;;;;;;;;;5021731;28;20020;-84
2022/07/30 05:58:16;;;;;;;;;;;;;;;;;;5026522;28;20317;-84
2022/07/30 06:00:41;;;;;;;;;;;;;;;;;;5022767;28;20000;-84
2022/07/30 06:03:06;;;;;;;;;;;;;;;;;;5020827;28;20399;-84
2022/07/30 06:05:32;;;;;;;;;;;;;;;;;;5022548;28;20015;-84
2022/07/30 06:07:57;;;;;;;;;;;;;;;;;;5020495;28;19920;-84
2022/07/30 06:10:22;;;;;;;;;;;;;;;;;;5022591;28;19917;-84
2022/07/30 06:12:47;;;;;;;;;;;;;;;;;;5017115;28;19917;-84
2022/07/30 06:15:12;;;;;;;;;;;;;;;;;;5025105;28;19914;-83
2022/07/30 06:17:37;;;;;;;;;;;;;;;;;;5019787;28;19921;-84
2022/07/30 06:20:03;;;;;;;;;;;;;;;;;;5018330;28;20362;-84
2022/07/30 06:22:28;;;;;;;;;;;;;;;;;;5026135;28;19920;-84
2022/07/30 06:24:53;;;;;;;;;;;;;;;;;;5025420;28;20357;-84
2022/07/30 06:27:18;;;;;;;;;;;;;;;;;;5019234;28;19913;-84
2022/07/30 06:29:43;;;;;;;;;;;;;;;;;;5021853;28;19921;-84
2022/07/30 06:32:09;;;;;;;;;;;;;;;;;;5020735;28;19920;-84
2022/07/30 06:34:34;;;;;;;;;;;;;;;;;;5021723;28;19924;-84
2022/07/30 06:36:59;;;;;;;;;;;;;;;;;;5018412;28;20421;-84
2022/07/30 06:39:24;;;;;;;;;;;;;;;;;;5018397;28;19913;-84
2022/07/30 06:41:49;;;;;;;;;;;;;;;;;;5022192;28;20466;-84
2022/07/30 06:44:14;;;;;;;;;;;;;;;;;;5023789;28;19924;-84
2022/07/30 06:46:40;;;;;;;;;;;;;;;;;;5023499;28;19913;-84
2022/07/30 06:49:05;;;;;;;;;;;;;;;;;;5024045;28;19914;-85
2022/07/30 06:51:30;;;;;;;;;;;;;;;;;;5020544;28;19922;-84
2022/07/30 06:53:55;;;;;;;;;;;;;;;;;;5021248;28;20395;-84
2022/07/30 06:56:20;;;;;;;;;;;;;;;;;;5021942;28;19931;-84
2022/07/30 06:58:46;;;;;;;;;;;;;;;;;;5024000;28;20390;-84
2022/07/30 07:01:11;;;;;;;;;;;;;;;;;;5025078;28;19951;-84
2022/07/30 07:03:36;;;;;;;;;;;;;;;;;;5022513;28;19913;-85
2022/07/30 07:06:02;;;;;;;;;;;;;;;;;;5022158;28;20667;-84
2022/07/30 07:08:27;;;;;;;;;;;;;;;;;;5022890;28;19936;-85
2022/07/30 07:10:53;;;;;;;;;;;;;;;;;;5021696;28;19955;-85
2022/07/30 07:13:18;;;;;;;;;;;;;;;;;;5025457;28;19940;-85
2022/07/30 07:15:43;;;;;;;;;;;;;;;;;;5022934;28;20278;-84
2022/07/30 07:18:08;;;;;;;;;;;;;;;;;;5026118;28;19964;-84
2022/07/30 07:20:34;;;;;;;;;;;;;;;;;;5017579;28;20096;-84
2022/07/30 07:22:59;;;;;;;;;;;;;;;;;;5022957;28;19920;-85
2022/07/30 07:25:24;;;;;;;;;;;;;;;;;;5019140;28;19927;-85
2022/07/30 07:27:49;;;;;;;;;;;;;;;;;;5018630;28;19917;-85
2022/07/30 07:30:14;;;;;;;;;;;;;;;;;;5022169;28;20035;-84
2022/07/30 07:32:40;;;;;;;;;;;;;;;;;;5023562;28;20366;-84
2022/07/30 07:35:05;;;;;;;;;;;;;;;;;;5023546;28;19917;-84
2022/07/30 07:37:30;;;;;;;;;;;;;;;;;;5023127;28;19917;-84
2022/07/30 07:39:55;;;;;;;;;;;;;;;;;;5022972;28;20283;-84
2022/07/30 07:42:20;;;;;;;;;;;;;;;;;;5023610;28;19918;-85
2022/07/30 07:44:46;;;;;;;;;;;;;;;;;;5030474;28;20211;-85
2022/07/30 07:47:11;;;;;;;;;;;;;;;;;;5023558;28;19912;-85
2022/07/30 07:49:36;;;;;;;;;;;;;;;;;;5025314;28;19913;-85
2022/07/30 07:52:01;;;;;;;;;;;;;;;;;;5020052;28;20462;-85
2022/07/30 07:57:08;;;;;;;;;;;;;;;;;;5201476;23;19940;-87
2022/07/30 07:59:33;;;;;;;;;;;;;;;;;;5024551;28;19921;-87
2022/07/30 08:01:58;;;;;;;;;;;;;;;;;;5023077;28;20035;-87
2022/07/30 08:04:24;;;;;;;;;;;;;;;;;;5031671;28;19968;-86
2022/07/30 08:06:49;;;;;;;;;;;;;;;;;;5028329;28;19973;-86
2022/07/30 08:09:17;;;;;;;;;;;;;;;;;;5029557;28;19913;-87
2022/07/30 08:11:42;;;;;;;;;;;;;;;;;;5025574;28;20367;-86
2022/07/30 08:14:07;;;;;;;;;;;;;;;;;;5024255;28;19913;-87
2022/07/30 08:16:32;;;;;;;;;;;;;;;;;;5018117;28;19929;-87
2022/07/30 08:18:57;;;;;;;;;;;;;;;;;;5019901;28;19957;-87
2022/07/30 08:21:23;;;;;;;;;;;;;;;;;;5023444;28;19909;-87
2022/07/30 08:23:48;;;;;;;;;;;;;;;;;;5022429;28;20521;-87
2022/07/30 08:26:13;;;;;;;;;;;;;;;;;;5020122;28;20000;-87
2022/07/30 08:28:38;;;;;;;;;;;;;;;;;;5021128;28;20294;-86
2022/07/30 08:31:04;;;;;;;;;;;;;;;;;;5023770;28;19959;-87
2022/07/30 08:33:29;;;;;;;;;;;;;;;;;;5020046;28;19913;-87
2022/07/30 08:35:54;;;;;;;;;;;;;;;;;;5023353;28;19964;-87
2022/07/30 08:38:19;;;;;;;;;;;;;;;;;;5022554;28;19921;-87
2022/07/30 08:40:44;;;;;;;;;;;;;;;;;;5019500;28;19980;-87
2022/07/30 08:43:10;;;;;;;;;;;;;;;;;;5019482;28;19913;-87
2022/07/30 08:45:35;;;;;;;;;;;;;;;;;;5023004;28;19922;-87
2022/07/30 08:48:00;;;;;;;;;;;;;;;;;;5026490;28;20430;-87
2022/07/30 08:50:25;;;;;;;;;;;;;;;;;;5021525;28;21007;-87
2022/07/30 08:52:54;;;;;;;;;;;;;;;;;;5020645;28;19913;-87
2022/07/30 08:55:20;;;;;;;;;;;;;;;;;;5020337;28;19952;-87
2022/07/30 08:57:45;;;;;;;;;;;;;;;;;;5022759;28;19953;-87
2022/07/30 09:00:12;;;;;;;;;;;;;;;;;;5004184;28;20104;-87
2022/07/30 09:02:38;;;;;;;;;;;;;;;;;;5018484;28;20394;-87
2022/07/30 09:05:03;;;;;;;;;;;;;;;;;;5021133;28;19912;-87
2022/07/30 09:07:28;;;;;;;;;;;;;;;;;;5019624;28;19991;-87
2022/07/30 09:09:53;;;;;;;;;;;;;;;;;;5017456;28;19965;-88
2022/07/30 09:12:18;;;;;;;;;;;;;;;;;;5023583;28;20012;-87
2022/07/30 09:14:44;;;;;;;;;;;;;;;;;;5018582;28;19917;-87
2022/07/30 09:17:09;;;;;;;;;;;;;;;;;;5019037;28;20019;-87
2022/07/30 09:19:34;;;;;;;;;;;;;;;;;;5021865;28;19921;-87
2022/07/30 09:21:59;;;;;;;;;;;;;;;;;;5019519;28;20367;-87
2022/07/30 09:24:24;;;;;;;;;;;;;;;;;;5018256;28;20012;-87
2022/07/30 09:26:50;;;;;;;;;;;;;;;;;;5020469;28;19918;-87
2022/07/30 09:29:18;;;;;;;;;;;;;;;;;;5025260;28;20438;-86
2022/07/30 09:31:43;;;;;;;;;;;;;;;;;;5016320;28;19921;-87
2022/07/30 09:34:08;;;;;;;;;;;;;;;;;;5022936;28;20051;-86
2022/07/30 09:36:33;;;;;;;;;;;;;;;;;;5027673;28;19921;-86
2022/07/30 09:38:58;;;;;;;;;;;;;;;;;;5021247;28;19959;-86
2022/07/30 09:41:25;;;;;;;;;;;;;;;;;;5024011;28;19985;-86
2022/07/30 09:43:50;;;;;;;;;;;;;;;;;;5024447;28;20417;-86
2022/07/30 09:46:15;;;;;;;;;;;;;;;;;;5026501;28;20015;-84
2022/07/30 09:48:40;;;;;;;;;;;;;;;;;;5022137;28;19921;-85
2022/07/30 09:51:05;;;;;;;;;;;;;;;;;;5021538;28;19917;-85
2022/07/30 09:53:31;;;;;;;;;;;;;;;;;;5028172;28;19920;-83
2022/07/30 09:55:57;;;;;;;;;;;;;;;;;;5026889;28;20397;-84
2022/07/30 09:58:22;;;;;;;;;;;;;;;;;;5023927;28;19913;-86
2022/07/30 10:00:47;;;;;;;;;;;;;;;;;;5031488;28;20016;-87
2022/07/30 10:03:12;;;;;;;;;;;;;;;;;;5025272;28;20388;-87
2022/07/30 10:05:37;;;;;;;;;;;;;;;;;;5031100;28;19920;-87
2022/07/30 10:08:20;;;;;;;;;;;;;;;;;;5019032;28;19914;-86
2022/07/30 10:13:48;;;;;;;;;;;;;;;;;;;;;
2022/07/30 10:18:49;;;;;;;;;;;;;;;;;;5292226;22;20028;-85
2022/07/30 10:21:20;;;;;;;;;;;;;;;;;;5027469;28;20080;-86
2022/07/30 10:29:24;;;;;;;;;;;;;;;;;;4970121;28;20056;-86
2022/07/30 10:31:50;;;;;;;;;;;;;;;;;;4969675;28;19929;-85
2022/07/30 10:34:19;;;;;;;;;;;;;;;;;;4963459;28;19949;-85
2022/07/30 10:36:57;;;;;;;;;;;;;;;;;;;;;
2022/07/30 10:39:38;;;;;;;;;;;;;;;;;;;;;
2022/07/30 11:16:25;;;;;;;;;;;;;;;;;;5049951;28;20393;-89
2022/07/30 11:36:06;;;;;;;;;;;;;;;;;;;;;
2022/07/30 16:05:56;;;;;;;;;;;;;;;;;;4986392;28;19933;-86
2022/07/30 17:18:44;;;;;;;;;;;;;;;;;;;;;
2022/07/30 18:51:25;;;;;;;;;;;;;;;;;;;;;
2022/07/30 18:57:24;;;;;;;;;;;;;;;;;;;;;
2022/07/30 19:03:04;;;;;;;;;;;;;;;;;;;;;
2022/07/30 19:08:14;;;;;;;;;;;;;;;;;;4925980;29;19918;-87
2022/07/30 19:30:52;;;;;;;;;;;;;;;;;;4834432;29;20379;-86
2022/07/30 19:36:15;;;;;;;;;;;;;;;;;;4863199;29;19928;-86
2022/07/30 19:38:47;;;;;;;;;;;;;;;;;;4917073;28;19914;-86
2022/07/30 19:41:22;;;;;;;;;;;;;;;;;;;;;
2022/07/30 19:44:04;;;;;;;;;;;;;;;;;;;;;
2022/07/30 19:46:40;;;;;;;;;;;;;;;;;;4985903;28;19929;-87
2022/07/30 19:57:33;;;;;;;;;;;;;;;;;;4980351;28;19924;-87
2022/07/30 20:03:05;;;;;;;;;;;;;;;;;;4984109;28;19957;-86
2022/07/30 20:05:33;;;;;;;;;;;;;;;;;;4968304;28;19914;-86
2022/07/30 20:08:02;;;;;;;;;;;;;;;;;;4984811;28;19914;-86
2022/07/30 20:10:30;;;;;;;;;;;;;;;;;;4989982;28;20451;-86
2022/07/30 20:13:01;;;;;;;;;;;;;;;;;;4988163;28;19917;-86
2022/07/30 20:18:31;;;;;;;;;;;;;;;;;;;;;
2022/07/30 20:23:53;;;;;;;;;;;;;;;;;;4980894;28;19913;-87
2022/07/30 20:29:13;;;;;;;;;;;;;;;;;;4985348;28;19914;-88
2022/07/30 20:31:39;;;;;;;;;;;;;;;;;;4978833;28;19914;-86
2022/07/30 20:34:07;;;;;;;;;;;;;;;;;;4985274;28;19914;-86
2022/07/30 20:36:33;;;;;;;;;;;;;;;;;;4978053;28;19929;-87
2022/07/30 20:38:59;;;;;;;;;;;;;;;;;;4992844;28;19921;-89
2022/07/30 21:28:31;;;;;;;;;;;;;;;;;;;;;
2022/07/30 21:33:53;;;;;;;;;;;;;;;;;;4928247;28;19911;-88
2022/07/30 21:36:18;;;;;;;;;;;;;;;;;;4984873;28;20327;-87
2022/07/30 21:38:46;;;;;;;;;;;;;;;;;;4991127;28;19913;-87
2022/07/30 21:41:19;;;;;;;;;;;;;;;;;;4993272;28;19940;-90
2022/07/30 21:43:47;;;;;;;;;;;;;;;;;;4993759;28;19914;-87
2022/07/30 21:46:12;;;;;;;;;;;;;;;;;;4984853;28;19914;-87
2022/07/30 21:48:41;;;;;;;;;;;;;;;;;;4979936;28;19918;-89
2022/07/30 21:51:14;;;;;;;;;;;;;;;;;;4977712;28;19941;-88
2022/07/30 21:53:39;;;;;;;;;;;;;;;;;;4980121;28;19922;-87
2022/07/30 21:56:04;;;;;;;;;;;;;;;;;;4989536;28;20286;-87
2022/07/30 21:58:32;;;;;;;;;;;;;;;;;;4971622;28;19918;-87
2022/07/30 22:01:00;;;;;;;;;;;;;;;;;;4987305;28;20376;-87
2022/07/30 22:03:34;;;;;;;;;;;;;;;;;;4986152;28;19914;-87
2022/07/30 22:06:00;;;;;;;;;;;;;;;;;;4986895;28;19918;-87
2022/07/30 22:08:31;;;;;;;;;;;;;;;;;;4985609;28;20379;-87
2022/07/30 22:10:56;;;;;;;;;;;;;;;;;;4991427;28;20537;-87
2022/07/30 22:13:22;;;;;;;;;;;;;;;;;;4994050;28;19913;-87
2022/07/30 22:15:49;;;;;;;;;;;;;;;;;;4992023;28;19911;-87
2022/07/30 22:18:14;;;;;;;;;;;;;;;;;;4989191;28;19914;-87
2022/07/30 22:20:40;;;;;;;;;;;;;;;;;;4985474;28;19925;-86
2022/07/30 22:23:06;;;;;;;;;;;;;;;;;;4984375;28;19921;-87
2022/07/30 22:25:31;;;;;;;;;;;;;;;;;;4983609;28;19949;-87
2022/07/30 22:27:59;;;;;;;;;;;;;;;;;;4990313;28;20622;-87
2022/07/30 22:30:25;;;;;;;;;;;;;;;;;;4985974;28;19917;-87
2022/07/30 22:32:50;;;;;;;;;;;;;;;;;;4988177;28;19914;-87
2022/07/30 22:35:15;;;;;;;;;;;;;;;;;;4981776;28;20341;-87
2022/07/30 22:37:40;;;;;;;;;;;;;;;;;;4984972;28;20394;-87
2022/07/30 22:40:06;;;;;;;;;;;;;;;;;;4981978;28;19914;-87
2022/07/30 22:42:34;;;;;;;;;;;;;;;;;;4990141;28;19924;-87
2022/07/30 22:44:59;;;;;;;;;;;;;;;;;;4984776;28;20345;-87
2022/07/30 22:47:25;;;;;;;;;;;;;;;;;;4985827;28;20000;-88
2022/07/30 22:49:50;;;;;;;;;;;;;;;;;;4985932;28;20411;-86
2022/07/30 22:52:15;;;;;;;;;;;;;;;;;;4982619;28;19914;-84
2022/07/30 22:54:40;;;;;;;;;;;;;;;;;;4979562;28;19918;-87
2022/07/30 22:57:06;;;;;;;;;;;;;;;;;;4978189;28;19917;-87
2022/07/30 22:59:31;;;;;;;;;;;;;;;;;;4980750;28;19918;-87
2022/07/30 23:01:56;;;;;;;;;;;;;;;;;;4977911;28;19922;-86
2022/07/30 23:04:21;;;;;;;;;;;;;;;;;;4981452;28;19914;-86
2022/07/30 23:06:46;;;;;;;;;;;;;;;;;;4977521;28;19914;-86
2022/07/30 23:09:11;;;;;;;;;;;;;;;;;;4981593;28;19918;-86
2022/07/30 23:11:37;;;;;;;;;;;;;;;;;;4979853;28;20001;-86
2022/07/30 23:14:02;;;;;;;;;;;;;;;;;;4985030;28;19913;-86
2022/07/30 23:16:27;;;;;;;;;;;;;;;;;;4979165;28;20367;-86
2022/07/30 23:18:53;;;;;;;;;;;;;;;;;;4981629;28;19914;-86
2022/07/30 23:21:18;;;;;;;;;;;;;;;;;;4977440;28;19936;-86
2022/07/30 23:23:43;;;;;;;;;;;;;;;;;;4969600;28;19914;-86
2022/07/30 23:26:08;;;;;;;;;;;;;;;;;;4978532;28;19913;-86
2022/07/30 23:28:34;;;;;;;;;;;;;;;;;;4979024;28;19941;-85
2022/07/30 23:30:59;;;;;;;;;;;;;;;;;;4977409;28;19997;-87
2022/07/30 23:33:24;;;;;;;;;;;;;;;;;;4980314;28;20524;-87
2022/07/30 23:35:49;;;;;;;;;;;;;;;;;;4976988;28;19915;-87
2022/07/30 23:38:14;;;;;;;;;;;;;;;;;;4980959;28;19924;-86
2022/07/30 23:40:40;;;;;;;;;;;;;;;;;;4974018;28;20376;-86
2022/07/30 23:43:05;;;;;;;;;;;;;;;;;;4988749;28;19914;-86
2022/07/30 23:45:30;;;;;;;;;;;;;;;;;;4976572;28;19922;-86
2022/07/30 23:47:57;;;;;;;;;;;;;;;;;;4967726;28;19936;-85
2022/07/30 23:50:23;;;;;;;;;;;;;;;;;;4978515;28;19930;-86
2022/07/30 23:52:48;;;;;;;;;;;;;;;;;;4976497;28;19922;-86
2022/07/30 23:55:13;;;;;;;;;;;;;;;;;;4982120;28;19969;-86
2022/07/30 23:57:38;;;;;;;;;;;;;;;;;;4976781;28;21362;-86
